sensor_id;sensor_type;location;lat;lon;timestamp;pressure;altitude;pressure_sealevel;temperature;humidity
13033;BME280;6583;42.632;23.298;2023-03-21T00:02:14;70520.34;;;-146.40;53.93
13033;BME280;6583;42.632;23.298;2023-03-21T00:04:41;70518.31;;;-146.40;53.29
13033;BME280;6583;42.632;23.298;2023-03-21T00:07:07;70528.41;;;-146.40;53.53
13033;BME280;6583;42.632;23.298;2023-03-21T00:09:34;70534.50;;;-146.40;53.58
13033;BME280;6583;42.632;23.298;2023-03-21T00:12:03;70530.44;;;-146.40;54.18
13033;BME280;6583;42.632;23.298;2023-03-21T00:14:31;70532.47;;;-146.40;54.13
13033;BME280;6583;42.632;23.298;2023-03-21T00:16:58;70530.44;;;-146.40;53.90
13033;BME280;6583;42.632;23.298;2023-03-21T00:19:25;70536.50;;;-146.40;54.47
13033;BME280;6583;42.632;23.298;2023-03-21T00:21:53;70528.41;;;-146.40;53.89
13033;BME280;6583;42.632;23.298;2023-03-21T00:24:20;70528.41;;;-146.40;54.20
13033;BME280;6583;42.632;23.298;2023-03-21T00:26:47;70534.50;;;-146.40;53.87
13033;BME280;6583;42.632;23.298;2023-03-21T00:29:16;70526.41;;;-146.40;54.98
13033;BME280;6583;42.632;23.298;2023-03-21T00:31:42;70530.44;;;-146.40;54.10
13033;BME280;6583;42.632;23.298;2023-03-21T00:34:09;70538.53;;;-146.40;54.20
13033;BME280;6583;42.632;23.298;2023-03-21T00:36:36;70546.63;;;-146.40;54.49
13033;BME280;6583;42.632;23.298;2023-03-21T00:39:03;70552.69;;;-146.40;54.76
13033;BME280;6583;42.632;23.298;2023-03-21T00:41:31;70542.59;;;-146.40;55.04
13033;BME280;6583;42.632;23.298;2023-03-21T00:43:57;70544.59;;;-146.40;54.66
13033;BME280;6583;42.632;23.298;2023-03-21T00:46:25;70558.78;;;-146.40;55.00
13033;BME280;6583;42.632;23.298;2023-03-21T00:48:52;70562.81;;;-146.40;55.18
13033;BME280;6583;42.632;23.298;2023-03-21T00:51:20;70566.88;;;-146.40;55.73
13033;BME280;6583;42.632;23.298;2023-03-21T00:53:51;70572.94;;;-146.40;55.83
13033;BME280;6583;42.632;23.298;2023-03-21T00:56:18;70568.88;;;-146.40;55.38
13033;BME280;6583;42.632;23.298;2023-03-21T00:58:45;70579.00;;;-146.40;56.06
13033;BME280;6583;42.632;23.298;2023-03-21T01:01:12;70574.97;;;-146.40;55.59
13033;BME280;6583;42.632;23.298;2023-03-21T01:03:40;70574.97;;;-146.40;56.24
13033;BME280;6583;42.632;23.298;2023-03-21T01:06:16;70613.41;;;-146.40;56.52
13033;BME280;6583;42.632;23.298;2023-03-21T01:08:44;70603.28;;;-146.40;56.95
13033;BME280;6583;42.632;23.298;2023-03-21T01:11:13;70611.38;;;-146.40;56.88
13033;BME280;6583;42.632;23.298;2023-03-21T01:13:41;70601.25;;;-146.40;57.01
13033;BME280;6583;42.632;23.298;2023-03-21T01:16:08;70603.28;;;-146.40;56.15
13033;BME280;6583;42.632;23.298;2023-03-21T01:18:36;70599.22;;;-146.40;55.67
13033;BME280;6583;42.632;23.298;2023-03-21T01:21:08;70611.38;;;-146.40;55.42
13033;BME280;6583;42.632;23.298;2023-03-21T01:23:35;70607.31;;;-146.40;56.35
13033;BME280;6583;42.632;23.298;2023-03-21T01:26:02;70609.34;;;-146.40;56.27
13033;BME280;6583;42.632;23.298;2023-03-21T01:28:30;70619.47;;;-146.40;56.52
13033;BME280;6583;42.632;23.298;2023-03-21T01:30:59;70619.47;;;-146.40;56.36
13033;BME280;6583;42.632;23.298;2023-03-21T01:33:26;70623.50;;;-146.40;56.73
13033;BME280;6583;42.632;23.298;2023-03-21T01:35:53;70627.56;;;-146.40;56.72
13033;BME280;6583;42.632;23.298;2023-03-21T01:38:21;70627.56;;;-146.40;57.32
13033;BME280;6583;42.632;23.298;2023-03-21T01:40:48;70625.53;;;-146.40;57.58
13033;BME280;6583;42.632;23.298;2023-03-21T01:43:21;70617.44;;;-146.40;56.98
13033;BME280;6583;42.632;23.298;2023-03-21T01:46:25;70615.41;;;-146.40;56.91
13033;BME280;6583;42.632;23.298;2023-03-21T01:48:56;70605.31;;;-146.40;55.92
13033;BME280;6583;42.632;23.298;2023-03-21T01:51:25;70595.19;;;-146.40;54.73
13033;BME280;6583;42.632;23.298;2023-03-21T01:53:54;70595.19;;;-146.40;53.89
13033;BME280;6583;42.632;23.298;2023-03-21T01:56:24;70595.19;;;-146.40;55.09
13033;BME280;6583;42.632;23.298;2023-03-21T01:58:54;70599.22;;;-146.40;55.62
13033;BME280;6583;42.632;23.298;2023-03-21T02:01:23;70613.41;;;-146.40;55.89
13033;BME280;6583;42.632;23.298;2023-03-21T02:03:50;70619.47;;;-146.40;56.24
13033;BME280;6583;42.632;23.298;2023-03-21T02:06:23;70629.59;;;-146.40;57.38
13033;BME280;6583;42.632;23.298;2023-03-21T02:08:57;70631.59;;;-146.40;57.85
13033;BME280;6583;42.632;23.298;2023-03-21T02:11:25;70631.59;;;-146.40;57.70
13033;BME280;6583;42.632;23.298;2023-03-21T02:13:54;70639.69;;;-146.40;58.48
13033;BME280;6583;42.632;23.298;2023-03-21T02:16:31;70641.72;;;-146.40;58.79
13033;BME280;6583;42.632;23.298;2023-03-21T02:22:13;70672.06;;;-146.40;60.16
13033;BME280;6583;42.632;23.298;2023-03-21T02:25:10;70684.22;;;-146.40;60.51
13033;BME280;6583;42.632;23.298;2023-03-21T02:27:45;70696.34;;;-146.40;60.31
13033;BME280;6583;42.632;23.298;2023-03-21T02:30:37;70684.22;;;-146.40;60.64
13033;BME280;6583;42.632;23.298;2023-03-21T02:36:25;70682.19;;;-146.40;61.44
13033;BME280;6583;42.632;23.298;2023-03-21T02:39:00;70706.47;;;-146.40;61.95
13033;BME280;6583;42.632;23.298;2023-03-21T02:41:37;70704.44;;;-146.40;62.90
13033;BME280;6583;42.632;23.298;2023-03-21T02:44:16;70708.50;;;-146.40;62.44
13033;BME280;6583;42.632;23.298;2023-03-21T02:46:50;70700.41;;;-146.40;62.32
13033;BME280;6583;42.632;23.298;2023-03-21T02:49:21;70702.41;;;-146.40;59.82
13033;BME280;6583;42.632;23.298;2023-03-21T02:51:50;70690.28;;;-146.40;58.84
13033;BME280;6583;42.632;23.298;2023-03-21T02:54:20;70694.34;;;-146.40;57.93
13033;BME280;6583;42.632;23.298;2023-03-21T02:56:50;70692.31;;;-146.40;58.19
13033;BME280;6583;42.632;23.298;2023-03-21T02:59:18;70696.34;;;-146.40;58.12
13033;BME280;6583;42.632;23.298;2023-03-21T03:01:46;70696.34;;;-146.40;58.71
13033;BME280;6583;42.632;23.298;2023-03-21T03:04:20;70694.34;;;-146.40;58.90
13033;BME280;6583;42.632;23.298;2023-03-21T03:07:04;70698.38;;;-146.40;58.66
13033;BME280;6583;42.632;23.298;2023-03-21T03:09:44;70702.41;;;-146.40;58.86
13033;BME280;6583;42.632;23.298;2023-03-21T03:12:21;70704.44;;;-146.40;59.41
13033;BME280;6583;42.632;23.298;2023-03-21T03:14:56;70724.69;;;-146.40;59.79
13033;BME280;6583;42.632;23.298;2023-03-21T03:17:38;70730.75;;;-146.40;60.49
13033;BME280;6583;42.632;23.298;2023-03-21T03:20:19;70722.66;;;-146.40;60.83
13033;BME280;6583;42.632;23.298;2023-03-21T03:22:53;70730.75;;;-146.40;61.43
13033;BME280;6583;42.632;23.298;2023-03-21T03:25:26;70716.59;;;-146.40;60.88
13033;BME280;6583;42.632;23.298;2023-03-21T03:27:55;70724.69;;;-146.40;60.61
13033;BME280;6583;42.632;23.298;2023-03-21T03:30:24;70730.75;;;-146.40;60.52
13033;BME280;6583;42.632;23.298;2023-03-21T03:32:54;70738.84;;;-146.40;60.60
13033;BME280;6583;42.632;23.298;2023-03-21T03:35:22;70738.84;;;-146.40;60.33
13033;BME280;6583;42.632;23.298;2023-03-21T03:37:53;70738.84;;;-146.40;60.92
13033;BME280;6583;42.632;23.298;2023-03-21T03:40:26;70732.78;;;-146.40;60.69
13033;BME280;6583;42.632;23.298;2023-03-21T03:42:58;70730.75;;;-146.40;60.31
13033;BME280;6583;42.632;23.298;2023-03-21T03:45:29;70732.78;;;-146.40;60.67
13033;BME280;6583;42.632;23.298;2023-03-21T03:48:03;70724.69;;;-146.40;60.64
13033;BME280;6583;42.632;23.298;2023-03-21T03:50:35;70726.69;;;-146.40;60.91
13033;BME280;6583;42.632;23.298;2023-03-21T03:53:06;70724.69;;;-146.40;60.63
13033;BME280;6583;42.632;23.298;2023-03-21T03:55:40;70714.56;;;-146.40;60.14
13033;BME280;6583;42.632;23.298;2023-03-21T03:58:08;70714.56;;;-146.40;60.18
13033;BME280;6583;42.632;23.298;2023-03-21T04:00:36;70720.63;;;-146.40;60.43
13033;BME280;6583;42.632;23.298;2023-03-21T04:03:02;70718.59;;;-146.40;60.55
13033;BME280;6583;42.632;23.298;2023-03-21T04:05:31;70720.63;;;-146.40;61.56
13033;BME280;6583;42.632;23.298;2023-03-21T04:07:58;70728.72;;;-146.40;62.04
13033;BME280;6583;42.632;23.298;2023-03-21T04:10:25;70728.72;;;-146.40;62.18
13033;BME280;6583;42.632;23.298;2023-03-21T04:12:53;70736.81;;;-146.40;61.84
13033;BME280;6583;42.632;23.298;2023-03-21T04:15:19;70740.88;;;-146.40;61.22
13033;BME280;6583;42.632;23.298;2023-03-21T04:17:46;70736.81;;;-146.40;61.47
13033;BME280;6583;42.632;23.298;2023-03-21T04:20:13;70736.81;;;-146.40;61.60
13033;BME280;6583;42.632;23.298;2023-03-21T04:22:40;70718.59;;;-146.40;61.33
13033;BME280;6583;42.632;23.298;2023-03-21T04:25:07;70714.56;;;-146.40;60.63
13033;BME280;6583;42.632;23.298;2023-03-21T04:27:34;70718.59;;;-146.40;60.22
13033;BME280;6583;42.632;23.298;2023-03-21T04:30:04;70730.75;;;-146.40;59.48
13033;BME280;6583;42.632;23.298;2023-03-21T04:32:31;70736.81;;;-146.40;60.06
13033;BME280;6583;42.632;23.298;2023-03-21T04:35:04;70753.00;;;-146.40;59.88
13033;BME280;6583;42.632;23.298;2023-03-21T04:37:31;70765.16;;;-146.40;59.96
13033;BME280;6583;42.632;23.298;2023-03-21T04:39:58;70767.16;;;-146.40;59.60
13033;BME280;6583;42.632;23.298;2023-03-21T04:42:25;70769.19;;;-146.40;60.31
13033;BME280;6583;42.632;23.298;2023-03-21T04:44:51;70767.16;;;-146.40;61.18
13033;BME280;6583;42.632;23.298;2023-03-21T04:47:19;70759.06;;;-146.40;60.61
13033;BME280;6583;42.632;23.298;2023-03-21T04:49:46;70750.97;;;-146.40;60.07
13033;BME280;6583;42.632;23.298;2023-03-21T04:52:13;70750.97;;;-146.40;59.95
13033;BME280;6583;42.632;23.298;2023-03-21T04:54:40;70755.03;;;-146.40;60.84
13033;BME280;6583;42.632;23.298;2023-03-21T04:57:06;70748.97;;;-146.40;60.92
13033;BME280;6583;42.632;23.298;2023-03-21T04:59:33;70755.03;;;-146.40;61.50
13033;BME280;6583;42.632;23.298;2023-03-21T05:02:00;70753.00;;;-146.40;62.21
13033;BME280;6583;42.632;23.298;2023-03-21T05:04:30;70755.03;;;-146.40;63.26
13033;BME280;6583;42.632;23.298;2023-03-21T05:06:57;70748.97;;;-146.40;63.15
13033;BME280;6583;42.632;23.298;2023-03-21T05:09:24;70740.88;;;-146.40;63.25
13033;BME280;6583;42.632;23.298;2023-03-21T05:11:52;70730.75;;;-146.40;63.02
13033;BME280;6583;42.632;23.298;2023-03-21T05:14:21;70734.78;;;-146.40;63.21
13033;BME280;6583;42.632;23.298;2023-03-21T05:16:48;70730.75;;;-146.40;63.55
13033;BME280;6583;42.632;23.298;2023-03-21T05:19:18;70738.84;;;-146.40;64.03
13033;BME280;6583;42.632;23.298;2023-03-21T05:21:48;70736.81;;;-146.40;64.56
13033;BME280;6583;42.632;23.298;2023-03-21T05:24:17;70736.81;;;-146.40;64.70
13033;BME280;6583;42.632;23.298;2023-03-21T05:26:45;70728.72;;;-146.40;64.71
13033;BME280;6583;42.632;23.298;2023-03-21T05:29:15;70724.69;;;-146.40;64.32
13033;BME280;6583;42.632;23.298;2023-03-21T05:31:42;70716.59;;;-146.40;64.87
13033;BME280;6583;42.632;23.298;2023-03-21T05:34:09;70718.59;;;-146.40;65.34
13033;BME280;6583;42.632;23.298;2023-03-21T05:36:35;70702.41;;;-146.40;65.65
13033;BME280;6583;42.632;23.298;2023-03-21T05:39:04;70700.41;;;-146.40;65.54
13033;BME280;6583;42.632;23.298;2023-03-21T05:41:31;70688.25;;;-146.40;64.36
13033;BME280;6583;42.632;23.298;2023-03-21T05:43:58;70680.16;;;-146.40;64.91
13033;BME280;6583;42.632;23.298;2023-03-21T05:46:25;70670.06;;;-146.40;64.93
13033;BME280;6583;42.632;23.298;2023-03-21T05:48:53;70659.94;;;-146.40;65.68
13033;BME280;6583;42.632;23.298;2023-03-21T05:51:19;70657.91;;;-146.40;65.58
13033;BME280;6583;42.632;23.298;2023-03-21T05:53:46;70643.75;;;-146.40;66.27
13033;BME280;6583;42.632;23.298;2023-03-21T05:56:15;70619.47;;;-146.40;64.82
13033;BME280;6583;42.632;23.298;2023-03-21T05:58:41;70603.28;;;-146.40;64.62
13033;BME280;6583;42.632;23.298;2023-03-21T06:01:08;70591.16;;;-146.40;65.43
13033;BME280;6583;42.632;23.298;2023-03-21T06:03:35;70579.00;;;-146.40;64.88
13033;BME280;6583;42.632;23.298;2023-03-21T06:06:02;70572.94;;;-146.40;64.19
13033;BME280;6583;42.632;23.298;2023-03-21T06:08:29;70564.84;;;-146.40;64.27
13033;BME280;6583;42.632;23.298;2023-03-21T06:10:56;70550.69;;;-146.40;63.29
13033;BME280;6583;42.632;23.298;2023-03-21T06:13:24;70542.59;;;-146.40;63.73
13033;BME280;6583;42.632;23.298;2023-03-21T06:15:51;70532.47;;;-146.40;63.22
13033;BME280;6583;42.632;23.298;2023-03-21T06:18:17;70518.31;;;-146.40;64.56
13033;BME280;6583;42.632;23.298;2023-03-21T06:20:44;70506.16;;;-146.40;65.09
13033;BME280;6583;42.632;23.298;2023-03-21T06:23:11;70498.06;;;-146.40;65.67
13033;BME280;6583;42.632;23.298;2023-03-21T06:25:37;70485.94;;;-146.40;65.35
13033;BME280;6583;42.632;23.298;2023-03-21T06:28:04;70473.78;;;-146.40;65.84
13033;BME280;6583;42.632;23.298;2023-03-21T06:30:32;70457.59;;;-146.40;65.71
13033;BME280;6583;42.632;23.298;2023-03-21T06:32:59;70445.47;;;-146.40;63.69
13033;BME280;6583;42.632;23.298;2023-03-21T06:35:25;70435.34;;;-146.40;63.21
13033;BME280;6583;42.632;23.298;2023-03-21T06:37:52;70429.28;;;-146.40;65.48
13033;BME280;6583;42.632;23.298;2023-03-21T06:40:19;70421.19;;;-146.40;64.33
13033;BME280;6583;42.632;23.298;2023-03-21T06:42:45;70405.00;;;-146.40;63.87
13033;BME280;6583;42.632;23.298;2023-03-21T06:45:12;70402.97;;;-146.40;62.30
13033;BME280;6583;42.632;23.298;2023-03-21T06:47:40;70388.81;;;-146.40;61.36
13033;BME280;6583;42.632;23.298;2023-03-21T06:50:07;70376.69;;;-146.40;60.08
13033;BME280;6583;42.632;23.298;2023-03-21T06:52:35;70372.63;;;-146.40;58.68
13033;BME280;6583;42.632;23.298;2023-03-21T06:55:01;70362.53;;;-146.40;56.71
13033;BME280;6583;42.632;23.298;2023-03-21T06:57:28;70348.38;;;-146.40;56.27
13033;BME280;6583;42.632;23.298;2023-03-21T06:59:54;70342.28;;;-146.40;56.11
13033;BME280;6583;42.632;23.298;2023-03-21T07:02:21;70334.19;;;-146.40;55.89
13033;BME280;6583;42.632;23.298;2023-03-21T07:04:49;70328.13;;;-146.40;54.37
13033;BME280;6583;42.632;23.298;2023-03-21T07:07:16;70320.03;;;-146.40;53.18
13033;BME280;6583;42.632;23.298;2023-03-21T07:09:42;70316.00;;;-146.40;52.32
13033;BME280;6583;42.632;23.298;2023-03-21T07:12:09;70303.84;;;-146.40;51.41
13033;BME280;6583;42.632;23.298;2023-03-21T07:14:36;70295.75;;;-146.40;52.62
13033;BME280;6583;42.632;23.298;2023-03-21T07:17:02;70299.81;;;-146.40;51.04
13033;BME280;6583;42.632;23.298;2023-03-21T07:19:29;70295.75;;;-146.40;52.59
13033;BME280;6583;42.632;23.298;2023-03-21T07:21:57;70295.75;;;-146.40;50.72
13033;BME280;6583;42.632;23.298;2023-03-21T07:24:24;70299.81;;;-146.40;51.66
13033;BME280;6583;42.632;23.298;2023-03-21T07:26:51;70295.75;;;-146.40;51.51
13033;BME280;6583;42.632;23.298;2023-03-21T07:29:18;70295.75;;;-146.40;51.24
13033;BME280;6583;42.632;23.298;2023-03-21T07:31:45;70291.72;;;-146.40;49.88
13033;BME280;6583;42.632;23.298;2023-03-21T07:34:12;70291.72;;;-146.40;49.79
13033;BME280;6583;42.632;23.298;2023-03-21T07:36:40;70291.72;;;-146.40;50.06
13033;BME280;6583;42.632;23.298;2023-03-21T07:39:08;70291.72;;;-146.40;51.02
13033;BME280;6583;42.632;23.298;2023-03-21T07:41:34;70291.72;;;-146.40;49.93
13033;BME280;6583;42.632;23.298;2023-03-21T07:44:01;70287.66;;;-146.40;49.28
13033;BME280;6583;42.632;23.298;2023-03-21T07:46:28;70287.66;;;-146.40;50.26
13033;BME280;6583;42.632;23.298;2023-03-21T07:48:54;70285.66;;;-146.40;48.54
13033;BME280;6583;42.632;23.298;2023-03-21T07:51:21;70283.63;;;-146.40;48.84
13033;BME280;6583;42.632;23.298;2023-03-21T07:53:48;70291.72;;;-146.40;48.47
13033;BME280;6583;42.632;23.298;2023-03-21T07:56:16;70287.66;;;-146.40;49.05
13033;BME280;6583;42.632;23.298;2023-03-21T07:58:42;70283.63;;;-146.40;48.95
13033;BME280;6583;42.632;23.298;2023-03-21T08:01:09;70279.56;;;-146.40;49.49
13033;BME280;6583;42.632;23.298;2023-03-21T08:03:36;70277.56;;;-146.40;47.75
13033;BME280;6583;42.632;23.298;2023-03-21T08:06:03;70271.47;;;-146.40;48.89
13033;BME280;6583;42.632;23.298;2023-03-21T08:08:30;70269.47;;;-146.40;48.12
13033;BME280;6583;42.632;23.298;2023-03-21T08:10:57;70271.47;;;-146.40;49.28
13033;BME280;6583;42.632;23.298;2023-03-21T08:13:25;70271.47;;;-146.40;47.51
13033;BME280;6583;42.632;23.298;2023-03-21T08:15:52;70263.38;;;-146.40;48.64
13033;BME280;6583;42.632;23.298;2023-03-21T08:18:19;70255.28;;;-146.40;48.15
13033;BME280;6583;42.632;23.298;2023-03-21T08:20:51;70237.09;;;-146.40;48.15
13033;BME280;6583;42.632;23.298;2023-03-21T08:23:17;70233.03;;;-146.40;46.58
13033;BME280;6583;42.632;23.298;2023-03-21T08:25:45;70226.97;;;-146.40;46.18
13033;BME280;6583;42.632;23.298;2023-03-21T08:28:12;70214.84;;;-146.40;47.93
13033;BME280;6583;42.632;23.298;2023-03-21T08:30:40;70212.81;;;-146.40;48.17
13033;BME280;6583;42.632;23.298;2023-03-21T08:33:06;70198.66;;;-146.40;46.40
13033;BME280;6583;42.632;23.298;2023-03-21T08:35:33;70198.66;;;-146.40;45.69
13033;BME280;6583;42.632;23.298;2023-03-21T08:38:01;70196.63;;;-146.40;45.70
13033;BME280;6583;42.632;23.298;2023-03-21T08:40:27;70196.63;;;-146.40;45.55
13033;BME280;6583;42.632;23.298;2023-03-21T08:42:54;70188.53;;;-146.40;45.52
13033;BME280;6583;42.632;23.298;2023-03-21T08:45:21;70178.44;;;-146.40;46.22
13033;BME280;6583;42.632;23.298;2023-03-21T08:47:50;70166.28;;;-146.40;46.58
13033;BME280;6583;42.632;23.298;2023-03-21T08:50:18;70172.34;;;-146.40;43.28
13033;BME280;6583;42.632;23.298;2023-03-21T08:52:45;70168.31;;;-146.40;43.60
13033;BME280;6583;42.632;23.298;2023-03-21T08:55:13;70158.19;;;-146.40;44.02
13033;BME280;6583;42.632;23.298;2023-03-21T08:57:41;70154.16;;;-146.40;44.30
13033;BME280;6583;42.632;23.298;2023-03-21T09:00:11;70150.09;;;-146.40;41.89
13033;BME280;6583;42.632;23.298;2023-03-21T09:02:38;70140.00;;;-146.40;43.33
13033;BME280;6583;42.632;23.298;2023-03-21T09:05:08;70142.00;;;-146.40;42.77
13033;BME280;6583;42.632;23.298;2023-03-21T09:07:36;70142.00;;;-146.40;43.10
13033;BME280;6583;42.632;23.298;2023-03-21T09:10:05;70137.97;;;-146.40;43.03
13033;BME280;6583;42.632;23.298;2023-03-21T09:12:32;70142.00;;;-146.40;41.90
13033;BME280;6583;42.632;23.298;2023-03-21T09:14:59;70142.00;;;-146.40;41.34
13033;BME280;6583;42.632;23.298;2023-03-21T09:17:27;70133.91;;;-146.40;41.33
13033;BME280;6583;42.632;23.298;2023-03-21T09:19:54;70129.88;;;-146.40;42.13
13033;BME280;6583;42.632;23.298;2023-03-21T09:22:22;70115.72;;;-146.40;42.81
13033;BME280;6583;42.632;23.298;2023-03-21T09:24:49;70105.59;;;-146.40;42.37
13033;BME280;6583;42.632;23.298;2023-03-21T09:27:16;70105.59;;;-146.40;43.62
13033;BME280;6583;42.632;23.298;2023-03-21T09:29:47;70091.44;;;-146.40;43.78
13033;BME280;6583;42.632;23.298;2023-03-21T09:32:14;70087.38;;;-146.40;42.23
13033;BME280;6583;42.632;23.298;2023-03-21T09:34:43;70083.34;;;-146.40;41.61
13033;BME280;6583;42.632;23.298;2023-03-21T09:37:09;70079.28;;;-146.40;42.01
13033;BME280;6583;42.632;23.298;2023-03-21T09:39:39;70067.16;;;-146.40;42.01
13033;BME280;6583;42.632;23.298;2023-03-21T09:42:15;70055.03;;;-146.40;42.33
13033;BME280;6583;42.632;23.298;2023-03-21T09:44:54;70061.09;;;-146.40;40.91
13033;BME280;6583;42.632;23.298;2023-03-21T09:47:26;70059.06;;;-146.40;41.33
13033;BME280;6583;42.632;23.298;2023-03-21T09:49:59;70053.00;;;-146.40;39.91
13033;BME280;6583;42.632;23.298;2023-03-21T09:52:31;70048.97;;;-146.40;41.03
13033;BME280;6583;42.632;23.298;2023-03-21T09:55:01;70040.88;;;-146.40;41.14
13033;BME280;6583;42.632;23.298;2023-03-21T09:57:30;70028.72;;;-146.40;40.76
13033;BME280;6583;42.632;23.298;2023-03-21T10:00:00;70028.72;;;-146.40;40.86
13033;BME280;6583;42.632;23.298;2023-03-21T10:02:37;70026.69;;;-146.40;41.21
13033;BME280;6583;42.632;23.298;2023-03-21T10:05:11;70012.53;;;-146.40;40.83
13033;BME280;6583;42.632;23.298;2023-03-21T10:07:41;70014.56;;;-146.40;39.71
13033;BME280;6583;42.632;23.298;2023-03-21T10:10:17;69998.38;;;-146.40;39.15
13033;BME280;6583;42.632;23.298;2023-03-21T10:12:46;69988.25;;;-146.40;39.85
13033;BME280;6583;42.632;23.298;2023-03-21T10:15:16;69972.09;;;-146.40;39.09
13033;BME280;6583;42.632;23.298;2023-03-21T10:17:48;69959.94;;;-146.40;38.59
13033;BME280;6583;42.632;23.298;2023-03-21T10:20:18;69947.81;;;-146.40;38.55
13033;BME280;6583;42.632;23.298;2023-03-21T10:22:48;69943.75;;;-146.40;38.78
13033;BME280;6583;42.632;23.298;2023-03-21T10:25:18;69931.63;;;-146.40;37.45
13033;BME280;6583;42.632;23.298;2023-03-21T10:27:47;69911.41;;;-146.40;37.74
13033;BME280;6583;42.632;23.298;2023-03-21T10:30:23;69907.34;;;-146.40;37.95
13033;BME280;6583;42.632;23.298;2023-03-21T10:32:51;69891.16;;;-146.40;38.98
13033;BME280;6583;42.632;23.298;2023-03-21T10:35:19;69895.22;;;-146.40;37.10
13033;BME280;6583;42.632;23.298;2023-03-21T10:37:46;69905.31;;;-146.40;37.02
13033;BME280;6583;42.632;23.298;2023-03-21T10:40:14;69895.22;;;-146.40;37.50
13033;BME280;6583;42.632;23.298;2023-03-21T10:42:43;69899.25;;;-146.40;37.63
13033;BME280;6583;42.632;23.298;2023-03-21T10:45:15;69889.16;;;-146.40;36.22
13033;BME280;6583;42.632;23.298;2023-03-21T10:47:46;69885.09;;;-146.40;36.48
13033;BME280;6583;42.632;23.298;2023-03-21T10:50:16;69872.97;;;-146.40;36.78
13033;BME280;6583;42.632;23.298;2023-03-21T10:52:46;69870.94;;;-146.40;37.01
13033;BME280;6583;42.632;23.298;2023-03-21T10:55:19;69864.88;;;-146.40;37.26
13033;BME280;6583;42.632;23.298;2023-03-21T10:57:52;69850.72;;;-146.40;36.90
13033;BME280;6583;42.632;23.298;2023-03-21T11:00:24;69848.69;;;-146.40;36.49
13033;BME280;6583;42.632;23.298;2023-03-21T11:02:53;69842.63;;;-146.40;37.96
13033;BME280;6583;42.632;23.298;2023-03-21T11:05:23;69834.53;;;-146.40;37.16
13033;BME280;6583;42.632;23.298;2023-03-21T11:07:58;69834.53;;;-146.40;36.84
13033;BME280;6583;42.632;23.298;2023-03-21T11:10:28;69826.44;;;-146.40;37.13
13033;BME280;6583;42.632;23.298;2023-03-21T11:13:01;69830.47;;;-146.40;37.53
13033;BME280;6583;42.632;23.298;2023-03-21T11:15:31;69826.44;;;-146.40;38.03
13033;BME280;6583;42.632;23.298;2023-03-21T11:17:59;69812.28;;;-146.40;37.03
13033;BME280;6583;42.632;23.298;2023-03-21T11:20:29;69802.16;;;-146.40;36.94
13033;BME280;6583;42.632;23.298;2023-03-21T11:22:56;69814.31;;;-146.40;35.98
13033;BME280;6583;42.632;23.298;2023-03-21T11:25:29;69804.19;;;-146.40;36.66
13033;BME280;6583;42.632;23.298;2023-03-21T11:28:04;69788.00;;;-146.40;36.70
13033;BME280;6583;42.632;23.298;2023-03-21T11:30:32;69781.94;;;-146.40;36.75
13033;BME280;6583;42.632;23.298;2023-03-21T11:33:01;69773.84;;;-146.40;37.18
13033;BME280;6583;42.632;23.298;2023-03-21T11:35:33;69771.81;;;-146.40;35.74
13033;BME280;6583;42.632;23.298;2023-03-21T11:38:00;69767.78;;;-146.40;36.13
13033;BME280;6583;42.632;23.298;2023-03-21T11:40:28;69773.84;;;-146.40;36.75
13033;BME280;6583;42.632;23.298;2023-03-21T11:42:56;69769.81;;;-146.40;37.11
13033;BME280;6583;42.632;23.298;2023-03-21T11:45:26;69765.75;;;-146.40;35.44
13033;BME280;6583;42.632;23.298;2023-03-21T11:47:55;69769.81;;;-146.40;35.19
13033;BME280;6583;42.632;23.298;2023-03-21T11:50:27;69790.03;;;-146.40;35.33
13033;BME280;6583;42.632;23.298;2023-03-21T11:53:11;69792.06;;;-146.40;35.90
13033;BME280;6583;42.632;23.298;2023-03-21T11:55:52;69785.97;;;-146.40;35.39
13033;BME280;6583;42.632;23.298;2023-03-21T11:58:35;69773.84;;;-146.40;35.38
13033;BME280;6583;42.632;23.298;2023-03-21T12:01:12;69765.75;;;-146.40;35.07
13033;BME280;6583;42.632;23.298;2023-03-21T12:06:32;69751.59;;;-146.40;35.72
13033;BME280;6583;42.632;23.298;2023-03-21T12:09:07;69743.50;;;-146.40;35.46
13033;BME280;6583;42.632;23.298;2023-03-21T12:11:48;69741.47;;;-146.40;34.11
13033;BME280;6583;42.632;23.298;2023-03-21T12:14:22;69761.72;;;-146.40;34.50
13033;BME280;6583;42.632;23.298;2023-03-21T12:17:04;69749.56;;;-146.40;34.64
13033;BME280;6583;42.632;23.298;2023-03-21T12:19:48;69741.47;;;-146.40;35.96
13033;BME280;6583;42.632;23.298;2023-03-21T12:22:24;69737.44;;;-146.40;33.61
13033;BME280;6583;42.632;23.298;2023-03-21T12:24:54;69727.31;;;-146.40;34.14
13033;BME280;6583;42.632;23.298;2023-03-21T12:27:31;69727.31;;;-146.40;34.71
13033;BME280;6583;42.632;23.298;2023-03-21T12:30:15;69727.31;;;-146.40;34.21
13033;BME280;6583;42.632;23.298;2023-03-21T12:32:55;69729.34;;;-146.40;34.50
13033;BME280;6583;42.632;23.298;2023-03-21T12:35:33;69731.38;;;-146.40;34.53
13033;BME280;6583;42.632;23.298;2023-03-21T12:38:12;69717.22;;;-146.40;33.52
13033;BME280;6583;42.632;23.298;2023-03-21T12:40:53;69715.19;;;-146.40;33.88
13033;BME280;6583;42.632;23.298;2023-03-21T12:43:39;69717.22;;;-146.40;34.03
13033;BME280;6583;42.632;23.298;2023-03-21T12:46:12;69715.19;;;-146.40;33.99
13033;BME280;6583;42.632;23.298;2023-03-21T12:48:44;69727.31;;;-146.40;34.52
13033;BME280;6583;42.632;23.298;2023-03-21T12:51:14;69717.22;;;-146.40;34.58
13033;BME280;6583;42.632;23.298;2023-03-21T12:53:49;69717.22;;;-146.40;34.13
13033;BME280;6583;42.632;23.298;2023-03-21T12:56:19;69719.22;;;-146.40;34.50
13033;BME280;6583;42.632;23.298;2023-03-21T12:58:51;69711.13;;;-146.40;35.33
13033;BME280;6583;42.632;23.298;2023-03-21T13:01:20;69707.09;;;-146.40;34.82
13033;BME280;6583;42.632;23.298;2023-03-21T13:04:01;69692.94;;;-146.40;33.74